UAE538 OMDB-VAAH
Flight info
| Callsign | UAE538 |
|---|---|
| Flight time | N/A |
| Altitude | 41000 |
| Route | IVURO M677 LALDO B505 NADSO B524 ALPOR M504 TELEM N893 VASLA VASLA1A |
| Aircraft | A332/H-SDE3GHIJ2J3J5M1RVWXY/LB2D1 |
Departure
| Time | 2026-05-08 08:55 |
|---|---|
| Airport | Dubai International Airport (OMDB) |
Arrival
| Time | N/A |
|---|---|
| Airport | Sardar Vallabh Patel International Airport (VAAH) |
| Time | Latitude | Longitude | Altitude | Speed | Heading |
|---|---|---|---|---|---|
| 2026-05-08 08:19 | 25.25602 | 55.37333 | 30 ft | 0 kts | 31° |
| 2026-05-08 08:37 | 25.25595 | 55.37329 | 30 ft | 3 kts | 31° |
| 2026-05-08 08:37 | 25.25590 | 55.37325 | 30 ft | 3 kts | 31° |
| 2026-05-08 08:37 | 25.25574 | 55.37314 | 30 ft | 3 kts | 31° |
| 2026-05-08 08:38 | 25.25564 | 55.37307 | 28 ft | 3 kts | 31° |
| 2026-05-08 08:38 | 25.25544 | 55.37293 | 28 ft | 3 kts | 58° |
| 2026-05-08 08:38 | 25.25538 | 55.37281 | 31 ft | 3 kts | 92° |
| 2026-05-08 08:38 | 25.25539 | 55.37269 | 30 ft | 0 kts | 117° |
| 2026-05-08 08:43 | 25.25537 | 55.37272 | 30 ft | 1 kts | 119° |
| 2026-05-08 08:43 | 25.25531 | 55.37284 | 31 ft | 3 kts | 119° |
| 2026-05-08 08:44 | 25.25520 | 55.37299 | 31 ft | 3 kts | 129° |
| 2026-05-08 08:44 | 25.25502 | 55.37323 | 31 ft | 5 kts | 129° |
| 2026-05-08 08:44 | 25.25478 | 55.37358 | 32 ft | 6 kts | 130° |
| 2026-05-08 08:44 | 25.25456 | 55.37378 | 32 ft | 3 kts | 153° |
| 2026-05-08 08:45 | 25.25435 | 55.37387 | 32 ft | 1 kts | 167° |
| 2026-05-08 08:45 | 25.25424 | 55.37385 | 32 ft | 2 kts | 182° |
| 2026-05-08 08:45 | 25.25404 | 55.37383 | 33 ft | 4 kts | 184° |
| 2026-05-08 08:45 | 25.25378 | 55.37390 | 33 ft | 2 kts | 157° |
| 2026-05-08 08:46 | 25.25363 | 55.37403 | 34 ft | 1 kts | 132° |
| 2026-05-08 08:46 | 25.25345 | 55.37430 | 33 ft | 8 kts | 126° |
| 2026-05-08 08:46 | 25.25331 | 55.37477 | 34 ft | 5 kts | 82° |
| 2026-05-08 08:46 | 25.25345 | 55.37538 | 34 ft | 12 kts | 82° |
| 2026-05-08 08:47 | 25.25335 | 55.37616 | 34 ft | 10 kts | 107° |
| 2026-05-08 08:47 | 25.25313 | 55.37670 | 34 ft | 4 kts | 135° |
| 2026-05-08 08:47 | 25.25292 | 55.37698 | 34 ft | 5 kts | 128° |
| 2026-05-08 08:47 | 25.25270 | 55.37732 | 35 ft | 7 kts | 123° |
| 2026-05-08 08:48 | 25.25243 | 55.37783 | 35 ft | 10 kts | 121° |
| 2026-05-08 08:48 | 25.25201 | 55.37859 | 35 ft | 13 kts | 121° |
| 2026-05-08 08:48 | 25.25150 | 55.37952 | 36 ft | 15 kts | 121° |
| 2026-05-08 08:48 | 25.25091 | 55.38057 | 36 ft | 18 kts | 121° |
| 2026-05-08 08:49 | 25.25021 | 55.38165 | 37 ft | 6 kts | 143° |
| 2026-05-08 08:49 | 25.24996 | 55.38168 | 37 ft | 2 kts | 186° |
| 2026-05-08 08:49 | 25.24984 | 55.38163 | 37 ft | 0 kts | 203° |
| 2026-05-08 08:49 | 25.24977 | 55.38159 | 36 ft | 3 kts | 208° |
| 2026-05-08 08:50 | 25.24942 | 55.38137 | 36 ft | 8 kts | 210° |
| 2026-05-08 08:50 | 25.24925 | 55.38126 | 36 ft | 1 kts | 211° |
| 2026-05-08 08:50 | 25.24911 | 55.38117 | 35 ft | 3 kts | 211° |
| 2026-05-08 08:50 | 25.24909 | 55.38115 | 35 ft | 0 kts | 211° |
| 2026-05-08 08:52 | 25.24908 | 55.38115 | 35 ft | 0 kts | 211° |
| 2026-05-08 08:52 | 25.24903 | 55.38111 | 36 ft | 2 kts | 211° |
| 2026-05-08 08:53 | 25.24881 | 55.38096 | 37 ft | 5 kts | 213° |
| 2026-05-08 08:53 | 25.24846 | 55.38070 | 38 ft | 7 kts | 215° |
| 2026-05-08 08:53 | 25.24816 | 55.38034 | 37 ft | 6 kts | 245° |
| 2026-05-08 08:53 | 25.24816 | 55.38014 | 37 ft | 0 kts | 290° |
| 2026-05-08 08:54 | 25.24820 | 55.38003 | 37 ft | 4 kts | 290° |
| 2026-05-08 08:54 | 25.24852 | 55.37927 | 36 ft | 20 kts | 301° |
| 2026-05-08 08:54 | 25.25023 | 55.37621 | 35 ft | 81 kts | 301° |
| 2026-05-08 08:55 | 25.25474 | 55.36811 | 25 ft | 167 kts | 301° |
| 2026-05-08 08:55 | 25.26173 | 55.35499 | 334 ft | 222 kts | 299° |
| 2026-05-08 08:55 | 25.26963 | 55.33985 | 1392 ft | 227 kts | 298° |
| 2026-05-08 08:55 | 25.27784 | 55.32535 | 2294 ft | 223 kts | 300° |
| 2026-05-08 08:56 | 25.28636 | 55.31087 | 3124 ft | 230 kts | 304° |
| 2026-05-08 08:56 | 25.29800 | 55.29881 | 3662 ft | 236 kts | 329° |
| 2026-05-08 08:56 | 25.31350 | 55.29439 | 3927 ft | 237 kts | 354° |
| 2026-05-08 08:56 | 25.33012 | 55.29443 | 3977 ft | 239 kts | 359° |
| 2026-05-08 08:57 | 25.34699 | 55.29521 | 3980 ft | 241 kts | 359° |
| 2026-05-08 08:57 | 25.36337 | 55.29592 | 3975 ft | 241 kts | 359° |
| 2026-05-08 08:57 | 25.38014 | 55.29660 | 3978 ft | 241 kts | 1° |
| 2026-05-08 08:57 | 25.39652 | 55.30073 | 3977 ft | 244 kts | 23° |
| 2026-05-08 08:58 | 25.40796 | 55.31021 | 3983 ft | 264 kts | 43° |
| 2026-05-08 08:58 | 25.41645 | 55.32083 | 3985 ft | 277 kts | 48° |
| 2026-05-08 08:58 | 25.42506 | 55.33275 | 4085 ft | 289 kts | 49° |
| 2026-05-08 08:58 | 25.43670 | 55.34906 | 4583 ft | 293 kts | 49° |
| 2026-05-08 08:59 | 25.44568 | 55.36161 | 4842 ft | 287 kts | 49° |
| 2026-05-08 08:59 | 25.45521 | 55.37483 | 4968 ft | 285 kts | 49° |
| 2026-05-08 08:59 | 25.46293 | 55.38549 | 4988 ft | 285 kts | 49° |
| 2026-05-08 08:59 | 25.46896 | 55.39379 | 4987 ft | 285 kts | 49° |
| 2026-05-08 09:00 | 25.47785 | 55.40600 | 4954 ft | 286 kts | 49° |
| 2026-05-08 09:00 | 25.48793 | 55.42014 | 4980 ft | 286 kts | 50° |
| 2026-05-08 09:00 | 25.49994 | 55.43730 | 4988 ft | 286 kts | 50° |
| 2026-05-08 09:00 | 25.50591 | 55.44588 | 4993 ft | 286 kts | 50° |
| 2026-05-08 09:01 | 25.51686 | 55.46164 | 4990 ft | 285 kts | 51° |
| 2026-05-08 09:01 | 25.52650 | 55.48013 | 4986 ft | 287 kts | 68° |
| 2026-05-08 09:01 | 25.52933 | 55.50191 | 4988 ft | 289 kts | 94° |
| 2026-05-08 09:01 | 25.52345 | 55.52303 | 5075 ft | 288 kts | 118° |
| 2026-05-08 09:02 | 25.51364 | 55.54117 | 5533 ft | 292 kts | 122° |
| 2026-05-08 09:02 | 25.50292 | 55.55970 | 6283 ft | 296 kts | 122° |
| 2026-05-08 09:02 | 25.49230 | 55.57803 | 7088 ft | 296 kts | 122° |
| 2026-05-08 09:02 | 25.48135 | 55.59701 | 7997 ft | 294 kts | 123° |
| 2026-05-08 09:03 | 25.47075 | 55.61547 | 8943 ft | 292 kts | 123° |
| 2026-05-08 09:03 | 25.45995 | 55.63437 | 9899 ft | 291 kts | 124° |
| 2026-05-08 09:03 | 25.44900 | 55.65353 | 10619 ft | 300 kts | 124° |
| 2026-05-08 09:03 | 25.43762 | 55.67341 | 10987 ft | 320 kts | 123° |
| 2026-05-08 09:04 | 25.42702 | 55.69528 | 11489 ft | 335 kts | 112° |
| 2026-05-08 09:04 | 25.42034 | 55.72007 | 12229 ft | 341 kts | 106° |
| 2026-05-08 09:04 | 25.41485 | 55.74581 | 13043 ft | 344 kts | 105° |
| 2026-05-08 09:04 | 25.40948 | 55.77164 | 13886 ft | 346 kts | 105° |
| 2026-05-08 09:05 | 25.40400 | 55.79775 | 14612 ft | 350 kts | 105° |
| 2026-05-08 09:05 | 25.39842 | 55.82417 | 15276 ft | 355 kts | 105° |
| 2026-05-08 09:05 | 25.39278 | 55.85075 | 15991 ft | 359 kts | 105° |
| 2026-05-08 09:05 | 25.38705 | 55.87768 | 16713 ft | 363 kts | 105° |
| 2026-05-08 09:06 | 25.38136 | 55.90438 | 17406 ft | 367 kts | 104° |
| 2026-05-08 09:06 | 25.37547 | 55.93192 | 18093 ft | 372 kts | 104° |
| 2026-05-08 09:06 | 25.36945 | 55.96005 | 18674 ft | 376 kts | 104° |
| 2026-05-08 09:06 | 25.36350 | 55.98781 | 19170 ft | 383 kts | 104° |
| 2026-05-08 09:07 | 25.35740 | 56.01624 | 19693 ft | 388 kts | 105° |
| 2026-05-08 09:07 | 25.35124 | 56.04495 | 20243 ft | 392 kts | 105° |
| 2026-05-08 09:07 | 25.34489 | 56.07449 | 20790 ft | 397 kts | 105° |
| 2026-05-08 09:07 | 25.33846 | 56.10433 | 21323 ft | 401 kts | 105° |
| 2026-05-08 09:08 | 25.33211 | 56.13391 | 21878 ft | 406 kts | 105° |
| 2026-05-08 09:08 | 25.32693 | 56.16419 | 22400 ft | 412 kts | 101° |
| 2026-05-08 09:08 | 25.32327 | 56.19592 | 22960 ft | 417 kts | 98° |
| 2026-05-08 09:08 | 25.32070 | 56.22502 | 23393 ft | 422 kts | 97° |
| 2026-05-08 09:09 | 25.31847 | 56.25444 | 23780 ft | 425 kts | 97° |
| 2026-05-08 09:09 | 25.31624 | 56.28528 | 24214 ft | 428 kts | 97° |
| 2026-05-08 09:09 | 25.31376 | 56.31886 | 24641 ft | 432 kts | 97° |
| 2026-05-08 09:09 | 25.31131 | 56.35052 | 25091 ft | 434 kts | 97° |
| 2026-05-08 09:10 | 25.30859 | 56.38439 | 25528 ft | 438 kts | 97° |
| 2026-05-08 09:10 | 25.30650 | 56.41804 | 25927 ft | 442 kts | 95° |
| 2026-05-08 09:10 | 25.30521 | 56.45209 | 26337 ft | 446 kts | 94° |
| 2026-05-08 09:10 | 25.30430 | 56.48648 | 26755 ft | 449 kts | 93° |
| 2026-05-08 09:11 | 25.30353 | 56.52088 | 27158 ft | 452 kts | 93° |
| 2026-05-08 09:11 | 25.30271 | 56.55575 | 27558 ft | 455 kts | 94° |
| 2026-05-08 09:11 | 25.29971 | 56.58957 | 27946 ft | 457 kts | 102° |
| 2026-05-08 09:11 | 25.29156 | 56.62358 | 28334 ft | 458 kts | 111° |
| 2026-05-08 09:12 | 25.28070 | 56.65662 | 28727 ft | 460 kts | 113° |
| 2026-05-08 09:12 | 25.26895 | 56.68905 | 29100 ft | 463 kts | 114° |
| 2026-05-08 09:12 | 25.25621 | 56.72253 | 29479 ft | 466 kts | 115° |
| 2026-05-08 09:12 | 25.24371 | 56.75477 | 29838 ft | 469 kts | 115° |
| 2026-05-08 09:13 | 25.23424 | 56.77916 | 30071 ft | 472 kts | 115° |
| 2026-05-08 09:13 | 25.22136 | 56.81245 | 30410 ft | 474 kts | 115° |
| 2026-05-08 09:13 | 25.20840 | 56.84614 | 30750 ft | 476 kts | 115° |
| 2026-05-08 09:13 | 25.19778 | 56.87391 | 31029 ft | 478 kts | 115° |
| 2026-05-08 09:14 | 25.18855 | 56.89808 | 31264 ft | 479 kts | 115° |
| 2026-05-08 09:14 | 25.17664 | 56.92935 | 31579 ft | 481 kts | 115° |
| 2026-05-08 09:14 | 25.16368 | 56.96341 | 31917 ft | 483 kts | 115° |
| 2026-05-08 09:14 | 25.15123 | 56.99609 | 32321 ft | 482 kts | 115° |
| 2026-05-08 09:15 | 25.14129 | 57.02220 | 32730 ft | 480 kts | 115° |
| 2026-05-08 09:15 | 25.13257 | 57.04508 | 33094 ft | 478 kts | 115° |
| 2026-05-08 09:15 | 25.12188 | 57.07312 | 33534 ft | 476 kts | 115° |
| 2026-05-08 09:15 | 25.11484 | 57.09156 | 33772 ft | 475 kts | 115° |
| 2026-05-08 09:16 | 25.10561 | 57.11571 | 34081 ft | 474 kts | 115° |
| 2026-05-08 09:16 | 25.09549 | 57.14216 | 34358 ft | 474 kts | 115° |
| 2026-05-08 09:16 | 25.08516 | 57.16913 | 34649 ft | 474 kts | 116° |
| 2026-05-08 09:16 | 25.07235 | 57.20257 | 35018 ft | 473 kts | 116° |
| 2026-05-08 09:17 | 25.05953 | 57.23600 | 35373 ft | 473 kts | 116° |
| 2026-05-08 09:17 | 25.04909 | 57.26320 | 35673 ft | 472 kts | 116° |
| 2026-05-08 09:17 | 25.04177 | 57.28225 | 35856 ft | 472 kts | 116° |
| 2026-05-08 09:17 | 25.03173 | 57.30841 | 36124 ft | 471 kts | 116° |
| 2026-05-08 09:18 | 25.02092 | 57.33652 | 36431 ft | 471 kts | 116° |
| 2026-05-08 09:18 | 25.01481 | 57.35241 | 36599 ft | 470 kts | 116° |
| 2026-05-08 09:18 | 25.00915 | 57.36713 | 36749 ft | 470 kts | 116° |
| 2026-05-08 09:18 | 24.99412 | 57.40617 | 37127 ft | 470 kts | 116° |
| 2026-05-08 09:19 | 24.98767 | 57.42291 | 37258 ft | 470 kts | 116° |
| 2026-05-08 09:19 | 24.97546 | 57.45459 | 37637 ft | 468 kts | 116° |
| 2026-05-08 09:19 | 24.96273 | 57.48761 | 38006 ft | 467 kts | 116° |
| 2026-05-08 09:19 | 24.95005 | 57.52047 | 38330 ft | 466 kts | 116° |
| 2026-05-08 09:20 | 24.93735 | 57.55335 | 38605 ft | 466 kts | 116° |
| 2026-05-08 09:20 | 24.92468 | 57.58610 | 38852 ft | 466 kts | 116° |
| 2026-05-08 09:20 | 24.91205 | 57.61874 | 39089 ft | 466 kts | 116° |
| 2026-05-08 09:20 | 24.89935 | 57.65155 | 39315 ft | 466 kts | 116° |
| 2026-05-08 09:21 | 24.88663 | 57.68435 | 39523 ft | 466 kts | 116° |
| 2026-05-08 09:21 | 24.87387 | 57.71725 | 39702 ft | 467 kts | 116° |
| 2026-05-08 09:22 | 24.81225 | 57.92114 | 40771 ft | 477 kts | 105° |
| 2026-05-08 09:23 | 24.80516 | 57.95622 | 40771 ft | 480 kts | 105° |
| 2026-05-08 09:23 | 24.79083 | 58.02800 | 40772 ft | 480 kts | 105° |
| 2026-05-08 09:24 | 24.77650 | 58.09912 | 40773 ft | 479 kts | 105° |
| 2026-05-08 09:24 | 24.76182 | 58.17114 | 40766 ft | 479 kts | 105° |
| 2026-05-08 09:25 | 24.74724 | 58.24217 | 40770 ft | 479 kts | 105° |
| 2026-05-08 09:25 | 24.73250 | 58.31382 | 40767 ft | 480 kts | 105° |
| 2026-05-08 09:26 | 24.71764 | 58.38590 | 40760 ft | 480 kts | 105° |
| 2026-05-08 09:26 | 24.70283 | 58.45757 | 40760 ft | 480 kts | 105° |
| 2026-05-08 09:27 | 24.68809 | 58.52870 | 40755 ft | 480 kts | 105° |
| 2026-05-08 09:27 | 24.67312 | 58.60080 | 40757 ft | 481 kts | 105° |
| 2026-05-08 09:28 | 24.65830 | 58.67197 | 40756 ft | 481 kts | 105° |
| 2026-05-08 09:28 | 24.64334 | 58.74363 | 40753 ft | 481 kts | 105° |
| 2026-05-08 09:29 | 24.62836 | 58.81523 | 40746 ft | 481 kts | 105° |
| 2026-05-08 09:29 | 24.61332 | 58.88692 | 40746 ft | 481 kts | 105° |
| 2026-05-08 09:30 | 24.59826 | 58.95856 | 40750 ft | 481 kts | 105° |
| 2026-05-08 09:30 | 24.58318 | 59.03013 | 40758 ft | 481 kts | 105° |
| 2026-05-08 09:31 | 24.56805 | 59.10173 | 40754 ft | 480 kts | 105° |
| 2026-05-08 09:31 | 24.55295 | 59.17304 | 40750 ft | 480 kts | 105° |
| 2026-05-08 09:32 | 24.53779 | 59.24446 | 40753 ft | 480 kts | 105° |
| 2026-05-08 09:32 | 24.52261 | 59.31574 | 40748 ft | 480 kts | 105° |
| 2026-05-08 09:33 | 24.50738 | 59.38703 | 40733 ft | 480 kts | 105° |
| 2026-05-08 09:33 | 24.49211 | 59.45839 | 40742 ft | 480 kts | 105° |
| 2026-05-08 09:34 | 24.47682 | 59.52964 | 40737 ft | 480 kts | 105° |
| 2026-05-08 09:34 | 24.46150 | 59.60086 | 40745 ft | 480 kts | 105° |
| 2026-05-08 09:35 | 24.44613 | 59.67217 | 40730 ft | 480 kts | 105° |
| 2026-05-08 09:35 | 24.43078 | 59.74321 | 40731 ft | 480 kts | 105° |
| 2026-05-08 09:36 | 24.41553 | 59.81362 | 40736 ft | 479 kts | 105° |
| 2026-05-08 09:36 | 24.40011 | 59.88463 | 40729 ft | 479 kts | 105° |
| 2026-05-08 09:37 | 24.38468 | 59.95546 | 40733 ft | 479 kts | 105° |
| 2026-05-08 09:37 | 24.36969 | 60.02419 | 40739 ft | 479 kts | 105° |
| 2026-05-08 09:38 | 24.35523 | 60.09027 | 40735 ft | 479 kts | 105° |
| 2026-05-08 09:38 | 24.34043 | 60.15783 | 40735 ft | 479 kts | 105° |
| 2026-05-08 09:39 | 24.32522 | 60.22712 | 40724 ft | 479 kts | 105° |
| 2026-05-08 09:39 | 24.31017 | 60.29557 | 40731 ft | 479 kts | 105° |
| 2026-05-08 09:40 | 24.29473 | 60.36558 | 40734 ft | 479 kts | 105° |
| 2026-05-08 09:40 | 24.27925 | 60.43563 | 40735 ft | 478 kts | 105° |
| 2026-05-08 09:41 | 24.26357 | 60.50641 | 40734 ft | 478 kts | 105° |
| 2026-05-08 09:41 | 24.24778 | 60.57751 | 40740 ft | 478 kts | 105° |
| 2026-05-08 09:42 | 24.23206 | 60.64814 | 40744 ft | 478 kts | 105° |
| 2026-05-08 09:42 | 24.21625 | 60.71900 | 40742 ft | 478 kts | 105° |
| 2026-05-08 09:43 | 24.20091 | 60.78765 | 40740 ft | 478 kts | 105° |
| 2026-05-08 09:43 | 24.18515 | 60.85816 | 40735 ft | 478 kts | 105° |
| 2026-05-08 09:44 | 24.16919 | 60.92943 | 40736 ft | 479 kts | 105° |
| 2026-05-08 09:44 | 24.15340 | 60.99974 | 40741 ft | 478 kts | 105° |
| 2026-05-08 09:45 | 24.13759 | 61.07001 | 40740 ft | 478 kts | 105° |
| 2026-05-08 09:45 | 24.12184 | 61.13983 | 40746 ft | 478 kts | 105° |
| 2026-05-08 09:46 | 24.10602 | 61.20978 | 40741 ft | 478 kts | 105° |
| 2026-05-08 09:46 | 24.09008 | 61.28014 | 40739 ft | 478 kts | 105° |
| 2026-05-08 09:47 | 24.07774 | 61.35119 | 40744 ft | 479 kts | 96° |
| 2026-05-08 09:47 | 24.07226 | 61.42385 | 40737 ft | 479 kts | 94° |
| 2026-05-08 09:48 | 24.06804 | 61.49669 | 40740 ft | 480 kts | 94° |
| 2026-05-08 09:48 | 24.06390 | 61.57006 | 40728 ft | 480 kts | 94° |
| 2026-05-08 09:49 | 24.05964 | 61.64236 | 40730 ft | 480 kts | 94° |
| 2026-05-08 09:49 | 24.05523 | 61.71522 | 40742 ft | 480 kts | 94° |
| 2026-05-08 09:50 | 24.05077 | 61.78804 | 40746 ft | 480 kts | 94° |
| 2026-05-08 09:50 | 24.04628 | 61.86085 | 40749 ft | 479 kts | 94° |
| 2026-05-08 09:51 | 24.04329 | 61.90893 | 40746 ft | 479 kts | 94° |